Time;durP1;ratioP1;P1;durP2;ratioP2;P2;SDS_P1;SDS_P2;PMS_P1;PMS_P2;Temp;Humidity;BMP_temperature;BMP_pressure;BME280_temperature;BME280_humidity;BME280_pressure;Samples;Min_cycle;Max_cycle;Signal;HPM_P1;HPM_P2
2022/10/27 00:00:01;;;;;;;13.32;5.47;;;;;;;5.23;100.00;93810.28;2131302;27;20070;-72
2022/10/27 00:01:02;;;;;;;10.63;4.78;;;;;;;5.30;100.00;93810.34;2129517;27;20035;-71
2022/10/27 00:02:03;;;;;;;10.77;4.70;;;;;;;5.29;100.00;93810.72;2127169;27;20019;-72
2022/10/27 00:03:04;;;;;;;20.13;4.88;;;;;;;5.25;100.00;93815.22;2129068;27;20026;-71
2022/10/27 00:04:05;;;;;;;7.68;4.20;;;;;;;5.24;100.00;93813.69;2126772;27;20622;-72
2022/10/27 00:05:07;;;;;;;8.93;4.32;;;;;;;5.17;100.00;93813.63;2124267;27;20023;-72
2022/10/27 00:06:08;;;;;;;12.52;4.75;;;;;;;5.17;100.00;93811.72;2123139;27;20453;-71
2022/10/27 00:07:09;;;;;;;13.02;4.90;;;;;;;5.24;100.00;93813.69;2130063;27;20110;-72
2022/10/27 00:08:16;;;;;;;9.93;5.10;;;;;;;5.27;100.00;93820.94;2131504;27;20073;-71
2022/10/27 00:09:17;;;;;;;14.20;4.40;;;;;;;5.23;100.00;93820.88;2131116;27;20049;-71
2022/10/27 00:10:18;;;;;;;10.98;5.18;;;;;;;5.18;100.00;93815.94;2130068;27;20034;-71
2022/10/27 00:11:19;;;;;;;12.55;4.68;;;;;;;5.20;100.00;93815.56;2131437;27;20067;-71
2022/10/27 00:12:20;;;;;;;13.85;5.03;;;;;;;5.11;100.00;93815.09;2131434;27;20091;-72
2022/10/27 00:13:21;;;;;;;13.32;4.03;;;;;;;5.14;100.00;93815.13;2131109;27;20023;-72
2022/10/27 00:14:22;;;;;;;12.02;4.65;;;;;;;5.18;100.00;93813.28;2130435;27;20026;-71
2022/10/27 00:15:24;;;;;;;10.63;4.57;;;;;;;5.17;100.00;93818.91;2126345;27;20125;-72
2022/10/27 00:16:25;;;;;;;7.75;4.22;;;;;;;5.16;100.00;93815.50;2126755;27;20481;-72
2022/10/27 00:17:29;;;;;;;10.13;4.68;;;;;;;5.15;100.00;93819.28;2127066;27;20026;-71
2022/10/27 00:18:30;;;;;;;12.68;4.45;;;;;;;5.13;100.00;93813.56;2126847;27;20023;-71
2022/10/27 00:19:32;;;;;;;17.33;5.65;;;;;;;5.11;100.00;93818.50;2126792;27;20023;-71
2022/10/27 00:20:33;;;;;;;9.80;4.05;;;;;;;5.13;100.00;93812.81;2124389;27;20035;-71
2022/10/27 00:21:35;;;;;;;12.85;4.70;;;;;;;5.12;100.00;93819.25;2126760;27;20142;-71
2022/10/27 00:22:36;;;;;;;13.40;4.63;;;;;;;5.10;100.00;93816.22;2126921;27;20031;-72
2022/10/27 00:23:38;;;;;;;8.88;3.80;;;;;;;5.13;100.00;93816.22;2126555;27;20076;-72
2022/10/27 00:24:38;;;;;;;9.20;4.28;;;;;;;5.16;100.00;93812.09;2126690;27;20062;-71
2022/10/27 00:25:39;;;;;;;11.07;4.25;;;;;;;5.05;100.00;93815.41;2126383;27;20111;-72
2022/10/27 00:26:40;;;;;;;16.35;4.82;;;;;;;5.08;100.00;93807.84;2126965;27;20419;-72
2022/10/27 00:27:42;;;;;;;11.23;4.53;;;;;;;5.04;100.00;93816.53;2131427;27;20026;-71
2022/10/27 00:28:44;;;;;;;14.27;4.20;;;;;;;5.09;100.00;93804.81;2131324;27;20030;-72
2022/10/27 00:29:45;;;;;;;11.98;4.65;;;;;;;5.04;100.00;93813.09;2117562;27;20027;-71
2022/10/27 00:30:46;;;;;;;10.30;4.28;;;;;;;5.04;100.00;93813.88;2117380;27;20027;-72
2022/10/27 00:31:47;;;;;;;12.23;4.43;;;;;;;5.03;100.00;93809.69;2127398;27;20559;-71
2022/10/27 00:32:48;;;;;;;10.88;4.53;;;;;;;4.99;100.00;93816.84;2126982;27;20027;-72
2022/10/27 00:33:50;;;;;;;12.07;4.75;;;;;;;5.01;100.00;93817.25;2122275;27;20031;-71
2022/10/27 00:34:51;;;;;;;17.00;4.75;;;;;;;4.96;100.00;93822.88;2130786;27;20098;-72
2022/10/27 00:35:52;;;;;;;11.70;4.55;;;;;;;5.02;100.00;93810.84;2117660;27;20106;-71
2022/10/27 00:36:52;;;;;;;14.13;4.97;;;;;;;5.02;100.00;93810.06;2120705;27;20553;-72
2022/10/27 00:37:53;;;;;;;11.77;5.05;;;;;;;5.04;100.00;93813.09;2126845;27;20018;-71
2022/10/27 00:38:57;;;;;;;10.15;4.18;;;;;;;4.94;100.00;93817.19;2126984;27;20034;-72
2022/10/27 00:39:57;;;;;;;12.40;4.30;;;;;;;4.97;100.00;93818.34;2126806;27;20483;-71
2022/10/27 00:40:59;;;;;;;8.57;4.80;;;;;;;4.94;100.00;93809.22;2126864;27;20029;-72
2022/10/27 00:42:01;;;;;;;12.77;4.95;;;;;;;4.96;100.00;93812.28;2125810;27;20087;-71
2022/10/27 00:43:02;;;;;;;11.90;4.80;;;;;;;4.88;100.00;93815.97;2126705;27;20017;-71
2022/10/27 00:44:29;;;;;;;12.82;5.30;;;;;;;4.90;100.00;93810.31;2124819;27;20027;-71
2022/10/27 00:45:30;;;;;;;9.27;4.22;;;;;;;4.93;100.00;93813.00;2126773;27;20026;-72
2022/10/27 00:46:44;;;;;;;14.75;4.40;;;;;;;4.92;100.00;93816.03;2127832;27;20030;-71
2022/10/27 00:47:47;;;;;;;11.50;4.63;;;;;;;4.93;100.00;93815.66;2126937;27;20038;-71
2022/10/27 00:48:51;;;;;;;15.02;4.55;;;;;;;4.89;100.00;93817.50;2131015;27;20147;-71
2022/10/27 00:50:07;;;;;;;14.95;4.63;;;;;;;4.94;100.00;93819.06;2126629;27;20035;-71
2022/10/27 00:51:14;;;;;;;12.82;4.68;;;;;;;4.85;100.00;93814.06;2116562;27;21493;-72
2022/10/27 00:52:27;;;;;;;11.70;4.32;;;;;;;4.87;100.00;93817.09;2118956;27;20114;-71
2022/10/27 00:53:30;;;;;;;9.25;4.22;;;;;;;4.88;100.00;93812.56;2126559;27;20453;-71
2022/10/27 00:54:36;;;;;;;13.75;4.05;;;;;;;4.87;100.00;93814.44;2126834;27;20424;-72
2022/10/27 00:55:38;;;;;;;14.05;4.32;;;;;;;4.87;100.00;93811.78;2126702;27;20031;-71
2022/10/27 00:56:41;;;;;;;17.80;4.65;;;;;;;4.90;100.00;93818.25;2126650;27;20362;-71
2022/10/27 00:57:45;;;;;;;12.13;4.82;;;;;;;4.89;100.00;93814.84;2127246;27;20031;-72
2022/10/27 00:58:46;;;;;;;16.15;4.22;;;;;;;4.92;100.00;93824.75;2126878;27;20027;-72
2022/10/27 00:59:48;;;;;;;10.88;4.68;;;;;;;4.92;100.00;93816.03;2117494;27;20541;-72
2022/10/27 01:00:49;;;;;;;16.30;4.90;;;;;;;4.84;100.00;93814.41;2121584;27;20049;-71
2022/10/27 01:01:53;;;;;;;13.38;4.60;;;;;;;4.86;100.00;93818.22;2126658;27;20113;-72
2022/10/27 01:02:55;;;;;;;10.80;4.30;;;;;;;4.88;100.00;93820.53;2126239;27;20361;-71
2022/10/27 01:03:56;;;;;;;11.27;4.53;;;;;;;4.87;100.00;93818.97;2126350;27;20022;-71
2022/10/27 01:05:04;;;;;;;11.43;4.30;;;;;;;4.88;100.00;93821.28;2126624;27;20097;-71
2022/10/27 01:06:05;;;;;;;11.60;4.20;;;;;;;4.93;100.00;93818.31;2126606;27;20031;-72
2022/10/27 01:07:06;;;;;;;10.43;4.32;;;;;;;4.94;100.00;93819.81;2126681;27;20061;-71
2022/10/27 01:08:07;;;;;;;21.50;5.35;;;;;;;4.87;100.00;93817.09;2126128;27;20034;-71
2022/10/27 01:09:08;;;;;;;10.57;4.43;;;;;;;4.85;100.00;93819.34;2126748;27;20031;-72
2022/10/27 01:10:11;;;;;;;13.90;4.35;;;;;;;4.80;100.00;93809.84;2126681;27;20118;-71
2022/10/27 01:11:14;;;;;;;13.02;4.32;;;;;;;4.78;100.00;93813.97;2126296;27;20465;-71
2022/10/27 01:12:15;;;;;;;15.35;4.05;;;;;;;4.76;100.00;93816.97;2125899;27;20425;-71
2022/10/27 01:13:17;;;;;;;9.38;4.15;;;;;;;4.71;100.00;93811.25;2129217;27;20043;-72
2022/10/27 01:14:19;;;;;;;12.52;4.00;;;;;;;4.72;100.00;93815.41;2126412;27;20053;-71
2022/10/27 01:15:23;;;;;;;15.18;4.88;;;;;;;4.70;100.00;93815.03;2126732;27;20045;-72
2022/10/27 01:16:36;;;;;;;15.93;4.65;;;;;;;4.72;100.00;93818.81;2126081;27;20050;-72
2022/10/27 01:18:08;;;;;;;9.90;4.47;;;;;;;4.70;100.00;93810.50;2126582;27;20042;-72
2022/10/27 01:19:21;;;;;;;12.13;4.25;;;;;;;4.72;100.00;93812.78;2126569;27;20043;-71
2022/10/27 01:20:59;;;;;;;10.95;4.20;;;;;;;4.75;100.00;93812.81;2126619;27;20357;-72
2022/10/27 01:22:12;;;;;;;14.50;4.30;;;;;;;4.76;100.00;93816.22;2123769;27;20035;-71
2022/10/27 01:23:25;;;;;;;21.05;4.22;;;;;;;4.74;100.00;93806.00;2126224;27;20034;-71
2022/10/27 01:24:41;;;;;;;21.90;5.20;;;;;;;4.75;100.00;93810.16;2126361;27;20125;-72
2022/10/27 01:25:51;;;;;;;11.55;5.15;;;;;;;4.76;100.00;93801.09;2126482;27;20037;-71
2022/10/27 01:27:02;;;;;;;13.90;4.40;;;;;;;4.73;100.00;93804.44;2126906;27;20042;-71
2022/10/27 01:28:47;;;;;;;11.85;3.95;;;;;;;4.67;100.00;93813.84;2126500;27;20377;-71
2022/10/27 01:30:13;;;;;;;13.82;3.78;;;;;;;4.70;100.00;93815.03;2126622;27;20589;-71
2022/10/27 01:31:21;;;;;;;10.20;4.25;;;;;;;4.70;100.00;93804.44;2126647;27;20030;-71
2022/10/27 01:32:52;;;;;;;15.10;4.55;;;;;;;4.62;100.00;93810.75;2125959;27;20469;-71
2022/10/27 01:34:35;;;;;;;12.40;4.15;;;;;;;4.70;100.00;93810.50;2125567;27;20079;-71
2022/10/27 01:35:49;;;;;;;19.30;4.03;;;;;;;4.67;100.00;93811.19;2126456;27;20463;-71
2022/10/27 01:36:58;;;;;;;17.15;4.28;;;;;;;4.69;100.00;93805.53;2126397;27;20030;-71
2022/10/27 01:38:11;;;;;;;12.75;4.18;;;;;;;4.71;100.00;93804.06;2126405;27;20023;-72
2022/10/27 01:39:15;;;;;;;18.63;4.65;;;;;;;4.62;100.00;93805.47;2128761;27;20966;-71
2022/10/27 01:40:23;;;;;;;17.10;3.88;;;;;;;4.73;100.00;93807.09;2126544;27;20027;-71
2022/10/27 01:41:30;;;;;;;15.98;3.97;;;;;;;4.68;100.00;93806.66;2126309;27;20483;-71
2022/10/27 01:42:55;;;;;;;12.50;3.83;;;;;;;4.72;100.00;93802.19;2126291;27;20034;-71
2022/10/27 01:44:03;;;;;;;10.68;4.43;;;;;;;4.67;100.00;93799.84;2125946;27;20114;-71
2022/10/27 01:45:06;;;;;;;18.13;4.20;;;;;;;4.64;100.00;93801.31;2126224;27;20023;-71
2022/10/27 01:46:10;;;;;;;13.60;3.72;;;;;;;4.69;100.00;93803.66;2126259;27;20023;-71
2022/10/27 01:47:13;;;;;;;13.60;4.28;;;;;;;4.66;100.00;93798.34;2126291;27;20060;-71
2022/10/27 01:48:15;;;;;;;12.13;4.00;;;;;;;4.63;100.00;93799.03;2126344;27;20125;-72
2022/10/27 01:49:16;;;;;;;16.48;5.00;;;;;;;4.60;100.00;93794.47;2125797;27;20027;-71
2022/10/27 01:50:23;;;;;;;17.52;4.32;;;;;;;4.61;100.00;93794.13;2126320;27;20475;-71
2022/10/27 01:51:26;;;;;;;11.73;3.83;;;;;;;4.62;100.00;93800.19;2126359;27;20026;-72
2022/10/27 01:52:38;;;;;;;9.15;3.55;;;;;;;4.62;100.00;93794.88;2126247;27;20039;-71
2022/10/27 01:53:46;;;;;;;11.32;4.45;;;;;;;4.63;100.00;93791.88;2126064;27;20072;-72
2022/10/27 01:54:47;;;;;;;13.70;4.40;;;;;;;4.56;100.00;93799.72;2128548;27;20031;-73
2022/10/27 01:56:02;;;;;;;13.50;4.07;;;;;;;4.54;100.00;93802.72;2126589;27;20885;-72
2022/10/27 01:57:06;;;;;;;12.35;3.90;;;;;;;4.48;100.00;93798.13;2126315;27;20027;-72
2022/10/27 01:58:19;;;;;;;11.40;4.25;;;;;;;4.53;100.00;93798.56;2126073;27;20078;-72
2022/10/27 01:59:48;;;;;;;13.57;4.13;;;;;;;4.53;100.00;93803.09;2125636;27;20082;-72
2022/10/27 02:01:13;;;;;;;12.13;3.47;;;;;;;4.59;100.00;93801.66;2126408;27;20481;-71
2022/10/27 02:02:23;;;;;;;16.00;4.15;;;;;;;4.60;100.00;93805.06;2126312;27;20034;-72
2022/10/27 02:03:35;;;;;;;14.38;4.70;;;;;;;4.55;100.00;93800.84;2125750;27;20657;-72
2022/10/27 02:04:44;;;;;;;13.23;4.28;;;;;;;4.58;100.00;93799.38;2126031;27;20046;-72
2022/10/27 02:05:54;;;;;;;12.82;3.83;;;;;;;4.60;100.00;93805.81;2129663;27;20027;-72
2022/10/27 02:07:05;;;;;;;11.73;3.97;;;;;;;4.60;100.00;93799.75;2125994;27;20023;-72
2022/10/27 02:08:09;;;;;;;9.95;3.40;;;;;;;4.57;100.00;93806.56;2125591;27;20030;-72
2022/10/27 02:09:28;;;;;;;9.65;3.28;;;;;;;4.53;100.00;93798.56;2126272;27;20023;-71
2022/10/27 02:10:45;;;;;;;11.88;3.45;;;;;;;4.62;100.00;93800.94;2127481;27;20113;-72
2022/10/27 02:11:51;;;;;;;10.25;3.90;;;;;;;4.61;100.00;93795.97;2126350;27;20065;-72
2022/10/27 02:12:54;;;;;;;10.32;3.58;;;;;;;4.65;100.00;93802.84;2126001;27;20033;-71
2022/10/27 02:13:57;;;;;;;8.98;3.90;;;;;;;4.67;100.00;93802.50;2125092;27;20376;-71
2022/10/27 02:15:02;;;;;;;10.27;3.55;;;;;;;4.74;100.00;93805.22;2125957;27;20090;-71
2022/10/27 02:16:07;;;;;;;9.45;2.90;;;;;;;4.69;100.00;93805.53;2125916;27;20047;-71
2022/10/27 02:17:12;;;;;;;15.57;3.65;;;;;;;4.63;100.00;93813.03;2125580;27;20360;-71
2022/10/27 02:18:19;;;;;;;13.98;3.35;;;;;;;4.65;100.00;93796.78;2125187;27;20031;-72
2022/10/27 02:19:25;;;;;;;7.78;2.60;;;;;;;4.68;100.00;93796.06;2126113;27;20492;-71
2022/10/27 02:20:32;;;;;;;10.60;2.85;;;;;;;4.68;100.00;93799.47;2127436;27;20031;-72
2022/10/27 02:21:35;;;;;;;9.85;3.88;;;;;;;4.61;100.00;93796.78;2126274;27;20046;-71
2022/10/27 02:22:37;;;;;;;8.35;2.72;;;;;;;4.64;100.00;93797.91;2129633;27;20023;-72
2022/10/27 02:23:38;;;;;;;7.20;3.05;;;;;;;4.65;100.00;93799.44;2125781;27;20042;-71
2022/10/27 02:24:40;;;;;;;6.60;2.97;;;;;;;4.64;100.00;93795.28;2126040;27;20495;-71
2022/10/27 02:26:06;;;;;;;9.57;2.42;;;;;;;4.60;100.00;93787.28;2126265;27;20026;-71
2022/10/27 02:27:19;;;;;;;11.23;2.35;;;;;;;4.63;100.00;93791.88;2128137;27;20505;-71
2022/10/27 02:28:26;;;;;;;7.63;2.60;;;;;;;4.59;100.00;93796.34;2126067;27;20018;-71
2022/10/27 02:29:37;;;;;;;8.55;2.25;;;;;;;4.59;100.00;93801.66;2125822;27;20031;-71
2022/10/27 02:30:39;;;;;;;5.10;2.70;;;;;;;4.63;100.00;93799.03;2126127;27;20063;-71
2022/10/27 02:31:45;;;;;;;3.75;2.13;;;;;;;4.64;100.00;93793.38;2126080;27;20687;-72
2022/10/27 02:32:46;;;;;;;6.70;2.63;;;;;;;4.66;100.00;93798.34;2125720;27;20031;-72
2022/10/27 02:33:49;;;;;;;3.90;2.50;;;;;;;4.58;100.00;93796.72;2125596;27;20030;-72
2022/10/27 02:34:50;;;;;;;5.35;2.65;;;;;;;4.64;100.00;93801.31;2125768;27;20483;-72
2022/10/27 02:35:53;;;;;;;12.93;2.85;;;;;;;4.65;100.00;93799.44;2126082;27;20054;-71
2022/10/27 02:36:54;;;;;;;5.97;2.35;;;;;;;4.68;100.00;93798.72;2126144;27;20068;-72
2022/10/27 02:37:57;;;;;;;6.63;2.63;;;;;;;4.65;100.00;93797.53;2125509;27;20031;-72
2022/10/27 02:38:58;;;;;;;10.40;3.67;;;;;;;4.66;100.00;93808.94;2125884;27;20478;-72
2022/10/27 02:39:59;;;;;;;8.82;2.67;;;;;;;4.69;100.00;93803.66;2125901;27;20044;-72
2022/10/27 02:41:00;;;;;;;8.18;3.47;;;;;;;4.70;100.00;93804.44;2126058;27;20019;-72
2022/10/27 02:42:04;;;;;;;5.90;2.72;;;;;;;4.68;100.00;93806.66;2125946;27;20042;-72
2022/10/27 02:43:05;;;;;;;8.35;3.53;;;;;;;4.74;100.00;93808.66;2125077;27;20038;-71
2022/10/27 02:44:06;;;;;;;13.82;3.30;;;;;;;4.75;100.00;93807.53;2126174;27;20034;-71
2022/10/27 02:45:07;;;;;;;6.90;3.20;;;;;;;4.75;100.00;93799.56;2124204;27;20070;-71
2022/10/27 02:46:08;;;;;;;8.90;3.72;;;;;;;4.76;100.00;93806.38;2126081;27;20031;-71
2022/10/27 02:47:09;;;;;;;12.05;4.13;;;;;;;4.74;100.00;93805.22;2123114;27;20121;-71
2022/10/27 02:48:10;;;;;;;4.90;3.33;;;;;;;4.75;100.00;93804.88;2127821;27;20669;-71
2022/10/27 02:49:11;;;;;;;3.83;3.20;;;;;;;4.74;100.00;93803.34;2126501;27;20118;-73
2022/10/27 02:50:12;;;;;;;6.28;3.30;;;;;;;4.69;100.00;93806.28;2122032;27;20027;-71
2022/10/27 02:51:13;;;;;;;5.22;3.58;;;;;;;4.72;100.00;93804.81;2126168;27;20081;-71
2022/10/27 02:52:14;;;;;;;10.57;3.30;;;;;;;4.72;100.00;93802.94;2126022;27;20026;-71
2022/10/27 02:53:15;;;;;;;6.70;3.42;;;;;;;4.74;100.00;93810.50;2127034;27;20027;-71
2022/10/27 02:54:16;;;;;;;10.43;3.70;;;;;;;4.72;100.00;93799.53;2130293;27;20042;-72
2022/10/27 02:55:17;;;;;;;8.32;3.50;;;;;;;4.65;100.00;93804.72;2116581;28;20019;-71
2022/10/27 02:56:18;;;;;;;6.90;3.92;;;;;;;4.68;100.00;93802.13;2116830;27;20512;-71
2022/10/27 02:57:19;;;;;;;11.60;3.72;;;;;;;4.69;100.00;93801.00;2126098;27;20046;-71
2022/10/27 02:58:20;;;;;;;7.38;3.50;;;;;;;4.67;100.00;93802.50;2125421;27;20037;-71
2022/10/27 02:59:21;;;;;;;10.57;3.65;;;;;;;4.66;100.00;93804.38;2126486;27;20380;-72
2022/10/27 03:00:22;;;;;;;7.38;2.78;;;;;;;4.67;100.00;93800.63;2125742;27;20450;-71
2022/10/27 03:01:23;;;;;;;13.75;3.20;;;;;;;4.63;100.00;93801.69;2126113;27;20059;-71
2022/10/27 03:02:24;;;;;;;12.88;3.40;;;;;;;4.64;100.00;93801.31;2126052;27;20088;-71
2022/10/27 03:03:25;;;;;;;6.80;2.95;;;;;;;4.58;100.00;93802.78;2128815;27;20495;-72
2022/10/27 03:04:26;;;;;;;12.38;3.20;;;;;;;4.63;100.00;93809.63;2125416;27;20031;-72
2022/10/27 03:05:27;;;;;;;6.82;3.10;;;;;;;4.60;100.00;93813.00;2125643;27;20530;-72
2022/10/27 03:06:28;;;;;;;5.93;3.03;;;;;;;4.65;100.00;93807.38;2124709;27;20027;-73
2022/10/27 03:07:29;;;;;;;10.15;3.85;;;;;;;4.57;100.00;93805.78;2116882;28;20027;-73
2022/10/27 03:08:30;;;;;;;9.95;2.85;;;;;;;4.53;100.00;93800.44;2116921;28;20031;-72
2022/10/27 03:09:31;;;;;;;8.15;3.35;;;;;;;4.62;100.00;93793.00;2126211;27;20081;-73
2022/10/27 03:10:32;;;;;;;9.55;3.65;;;;;;;4.64;100.00;93798.69;2126473;27;20376;-72
2022/10/27 03:11:33;;;;;;;7.22;3.88;;;;;;;4.64;100.00;93798.69;2127658;27;20022;-71
2022/10/27 03:12:34;;;;;;;7.75;3.45;;;;;;;4.64;100.00;93795.28;2127656;27;20041;-72
2022/10/27 03:13:35;;;;;;;10.05;3.33;;;;;;;4.64;100.00;93803.97;2118020;27;20027;-72
2022/10/27 03:14:36;;;;;;;14.48;3.60;;;;;;;4.64;100.00;93801.31;2110010;28;20028;-72
2022/10/27 03:15:37;;;;;;;5.40;3.30;;;;;;;4.57;100.00;93808.44;2120274;27;20035;-71
2022/10/27 03:16:37;;;;;;;12.68;3.45;;;;;;;4.60;100.00;93810.34;2118013;27;20063;-72
2022/10/27 03:17:46;;;;;;;10.48;3.67;;;;;;;4.63;100.00;93807.75;2117163;27;20085;-72
2022/10/27 03:18:47;;;;;;;8.60;3.40;;;;;;;4.63;100.00;93805.09;2127599;27;20027;-72
2022/10/27 03:19:48;;;;;;;9.48;3.53;;;;;;;4.59;100.00;93804.28;2126823;27;20018;-72
2022/10/27 03:20:49;;;;;;;6.07;3.78;;;;;;;4.59;100.00;93809.59;2123212;27;20042;-72
2022/10/27 03:21:50;;;;;;;7.85;3.13;;;;;;;4.70;100.00;93802.53;2127665;27;20030;-72
2022/10/27 03:22:51;;;;;;;12.27;3.47;;;;;;;4.62;100.00;93803.59;2127611;27;20038;-72
2022/10/27 03:23:52;;;;;;;8.70;3.55;;;;;;;4.61;100.00;93799.41;2126958;27;20030;-72
2022/10/27 03:24:53;;;;;;;5.57;3.72;;;;;;;4.61;100.00;93806.56;2127648;27;20596;-72
2022/10/27 03:25:53;;;;;;;8.52;3.25;;;;;;;4.62;100.00;93808.13;2130259;27;20738;-71
2022/10/27 03:26:54;;;;;;;8.27;3.22;;;;;;;4.62;100.00;93808.13;2128354;27;20018;-72
2022/10/27 03:27:55;;;;;;;8.27;3.58;;;;;;;4.64;100.00;93814.56;2127500;27;20035;-72
2022/10/27 03:28:56;;;;;;;9.05;3.80;;;;;;;4.57;100.00;93814.50;2126482;27;20043;-71
2022/10/27 03:29:57;;;;;;;12.43;4.10;;;;;;;4.47;100.00;93815.09;2128815;27;20090;-71
2022/10/27 03:30:58;;;;;;;7.10;3.25;;;;;;;4.52;100.00;93820.09;2126292;27;20027;-71
2022/10/27 03:31:59;;;;;;;7.90;3.50;;;;;;;4.54;100.00;93818.59;2127418;27;20099;-71
2022/10/27 03:33:00;;;;;;;11.20;3.58;;;;;;;4.58;100.00;93820.56;2127296;27;20030;-71
2022/10/27 03:34:02;;;;;;;5.50;3.50;;;;;;;4.59;100.00;93820.19;2127410;27;20464;-72
2022/10/27 03:35:03;;;;;;;9.82;4.28;;;;;;;4.60;100.00;93821.69;2116064;27;20145;-72
2022/10/27 03:36:04;;;;;;;9.13;3.28;;;;;;;4.57;100.00;93819.78;2120939;27;20051;-72
2022/10/27 03:37:05;;;;;;;9.38;3.55;;;;;;;4.51;100.00;93819.31;2128906;27;20026;-71
2022/10/27 03:38:07;;;;;;;9.90;3.75;;;;;;;4.47;100.00;93823.81;2129910;27;20050;-71
2022/10/27 03:39:08;;;;;;;6.72;4.43;;;;;;;4.47;100.00;93815.09;2127553;27;20506;-71
2022/10/27 03:40:10;;;;;;;15.88;4.95;;;;;;;4.51;100.00;93819.31;2127374;27;20054;-71
2022/10/27 03:41:11;;;;;;;10.68;4.75;;;;;;;4.55;100.00;93817.47;2126929;27;20022;-71
2022/10/27 03:42:13;;;;;;;9.90;4.18;;;;;;;4.54;100.00;93812.56;2128061;27;20513;-71
2022/10/27 03:43:14;;;;;;;8.98;4.57;;;;;;;4.53;100.00;93816.34;2117327;27;20091;-71
2022/10/27 03:44:15;;;;;;;8.43;3.83;;;;;;;4.57;100.00;93809.19;2118331;27;20041;-72
2022/10/27 03:45:16;;;;;;;9.50;4.97;;;;;;;4.53;100.00;93808.38;2127211;27;20023;-71
2022/10/27 03:46:17;;;;;;;11.45;4.40;;;;;;;4.53;100.00;93811.78;2127212;27;20015;-71
2022/10/27 03:47:18;;;;;;;7.85;4.20;;;;;;;4.54;100.00;93812.56;2126625;27;20369;-71
2022/10/27 03:48:19;;;;;;;7.13;4.22;;;;;;;4.48;100.00;93814.00;2127193;27;20019;-71
2022/10/27 03:49:20;;;;;;;11.48;4.50;;;;;;;4.53;100.00;93818.97;2125566;27;20027;-71
2022/10/27 03:50:21;;;;;;;8.25;3.90;;;;;;;4.59;100.00;93817.53;2127406;27;20037;-71
2022/10/27 03:51:22;;;;;;;7.63;3.72;;;;;;;4.63;100.00;93814.94;2127285;27;20046;-71
2022/10/27 03:52:23;;;;;;;12.90;4.05;;;;;;;4.63;100.00;93818.34;2126742;27;20085;-71
2022/10/27 03:53:24;;;;;;;5.05;3.50;;;;;;;4.65;100.00;93813.44;2127044;27;20023;-71
2022/10/27 03:54:29;;;;;;;6.30;3.55;;;;;;;4.63;100.00;93814.94;2127354;27;20027;-72
2022/10/27 03:55:31;;;;;;;15.75;4.22;;;;;;;4.70;100.00;93815.03;2125872;27;20027;-71
2022/10/27 03:56:32;;;;;;;11.98;3.70;;;;;;;4.71;100.00;93813.91;2127189;27;20030;-72
2022/10/27 03:57:33;;;;;;;8.98;3.22;;;;;;;4.69;100.00;93814.25;2127331;27;20027;-71
2022/10/27 03:58:34;;;;;;;5.15;3.40;;;;;;;4.67;100.00;93810.44;2127130;27;20038;-72
2022/10/27 03:59:35;;;;;;;13.50;3.53;;;;;;;4.68;100.00;93804.03;2127266;27;20475;-71
2022/10/27 04:00:36;;;;;;;8.35;3.28;;;;;;;4.66;100.00;93799.09;2127176;27;20034;-71
2022/10/27 04:01:37;;;;;;;7.97;3.15;;;;;;;4.63;100.00;93810.41;2127177;27;20068;-71
2022/10/27 04:02:37;;;;;;;6.60;3.40;;;;;;;4.66;100.00;93800.97;2126590;27;20027;-71
2022/10/27 04:03:39;;;;;;;10.88;3.65;;;;;;;4.69;100.00;93802.88;2126971;27;20023;-71
2022/10/27 04:04:40;;;;;;;11.63;3.70;;;;;;;4.67;100.00;93803.25;2127224;27;20103;-71
2022/10/27 04:05:41;;;;;;;8.10;4.05;;;;;;;4.65;100.00;93810.03;2127318;27;20058;-71
2022/10/27 04:06:42;;;;;;;6.72;3.63;;;;;;;4.63;100.00;93809.63;2127265;27;20035;-71
2022/10/27 04:07:42;;;;;;;5.30;3.10;;;;;;;4.64;100.00;93819.84;2130116;27;20030;-71
2022/10/27 04:08:44;;;;;;;17.35;3.95;;;;;;;4.65;100.00;93810.03;2127344;27;20027;-71
2022/10/27 04:09:44;;;;;;;11.23;4.20;;;;;;;4.65;100.00;93818.72;2127144;27;20025;-70
2022/10/27 04:10:45;;;;;;;9.77;3.22;;;;;;;4.68;100.00;93817.25;2127318;27;20034;-72
2022/10/27 04:11:46;;;;;;;11.20;3.83;;;;;;;4.62;100.00;93818.72;2126781;27;20117;-72
2022/10/27 04:12:49;;;;;;;8.50;3.85;;;;;;;4.62;100.00;93819.47;2126275;27;20034;-72
2022/10/27 04:13:50;;;;;;;11.07;3.58;;;;;;;4.64;100.00;93809.25;2126492;27;20022;-72
2022/10/27 04:14:51;;;;;;;7.25;3.45;;;;;;;4.67;100.00;93810.44;2125976;27;20042;-71
2022/10/27 04:15:52;;;;;;;10.23;3.42;;;;;;;4.65;100.00;93812.66;2126882;27;20105;-71
2022/10/27 04:16:53;;;;;;;10.57;3.58;;;;;;;4.63;100.00;93809.63;2127093;27;20030;-71
2022/10/27 04:17:57;;;;;;;12.05;3.50;;;;;;;4.66;100.00;93814.22;2126282;27;20038;-72
2022/10/27 04:18:58;;;;;;;6.25;3.30;;;;;;;4.65;100.00;93807.38;2127089;27;20027;-72
2022/10/27 04:19:58;;;;;;;9.13;3.75;;;;;;;4.61;100.00;93811.88;2125826;27;20065;-72
2022/10/27 04:21:04;;;;;;;10.20;4.07;;;;;;;4.63;100.00;93815.69;2127102;27;20424;-72
2022/10/27 04:22:05;;;;;;;8.60;3.50;;;;;;;4.65;100.00;93812.66;2126424;27;20384;-72
2022/10/27 04:23:06;;;;;;;6.72;3.65;;;;;;;4.62;100.00;93819.47;2126456;27;20042;-71
2022/10/27 04:24:07;;;;;;;10.70;3.85;;;;;;;4.60;100.00;93813.75;2126573;27;20031;-71
2022/10/27 04:25:08;;;;;;;6.07;3.97;;;;;;;4.64;100.00;93814.56;2126979;27;20058;-72
2022/10/27 04:26:09;;;;;;;8.30;3.92;;;;;;;4.63;100.00;93820.22;2127080;27;20049;-72
2022/10/27 04:27:10;;;;;;;7.90;3.63;;;;;;;4.61;100.00;93822.47;2129624;27;20053;-73
2022/10/27 04:28:11;;;;;;;9.73;3.75;;;;;;;4.57;100.00;93819.03;2126796;27;20019;-70
2022/10/27 04:29:12;;;;;;;15.27;4.00;;;;;;;4.51;100.00;93814.03;2129756;27;20034;-70
2022/10/27 04:30:13;;;;;;;8.30;4.18;;;;;;;4.53;100.00;93818.97;2126865;27;20023;-71
2022/10/27 04:31:14;;;;;;;13.93;4.20;;;;;;;4.48;100.00;93821.94;2126970;27;20050;-70
2022/10/27 04:32:15;;;;;;;7.35;3.25;;;;;;;4.54;100.00;93823.91;2127114;27;20035;-70
2022/10/27 04:33:16;;;;;;;7.80;3.38;;;;;;;4.56;100.00;93818.25;2126569;27;20026;-71
2022/10/27 04:34:17;;;;;;;7.65;3.33;;;;;;;4.53;100.00;93818.97;2127950;27;20431;-71
2022/10/27 04:35:19;;;;;;;9.07;3.63;;;;;;;4.54;100.00;93821.25;2127041;27;20067;-72
2022/10/27 04:36:20;;;;;;;12.32;3.85;;;;;;;4.57;100.00;93819.03;2117688;27;20030;-71
2022/10/27 04:37:21;;;;;;;5.65;3.40;;;;;;;4.56;100.00;93818.25;2117900;27;20034;-70
2022/10/27 04:38:23;;;;;;;9.73;3.60;;;;;;;4.43;100.00;93816.94;2126828;27;20023;-70
2022/10/27 04:39:24;;;;;;;6.60;3.28;;;;;;;4.51;100.00;93819.31;2116705;27;20122;-70
2022/10/27 04:40:25;;;;;;;6.63;3.58;;;;;;;4.52;100.00;93818.22;2117761;27;20477;-70
2022/10/27 04:41:26;;;;;;;9.80;3.30;;;;;;;4.52;100.00;93820.88;2126930;27;20034;-70
2022/10/27 04:42:27;;;;;;;8.27;3.42;;;;;;;4.55;100.00;93817.47;2126768;27;20027;-70
2022/10/27 04:43:28;;;;;;;9.43;3.60;;;;;;;4.55;100.00;93814.06;2126383;27;20420;-71
2022/10/27 04:44:29;;;;;;;7.85;3.67;;;;;;;4.57;100.00;93816.38;2116858;27;20035;-71
2022/10/27 04:45:30;;;;;;;7.40;3.60;;;;;;;4.58;100.00;93817.91;2118009;27;20043;-70
2022/10/27 04:46:31;;;;;;;6.70;3.78;;;;;;;4.49;100.00;93818.94;2126975;27;20027;-71
2022/10/27 04:47:32;;;;;;;9.27;4.13;;;;;;;4.53;100.00;93819.75;2127024;27;20050;-70
2022/10/27 04:48:33;;;;;;;6.78;3.78;;;;;;;4.54;100.00;93818.59;2126926;27;20574;-71
2022/10/27 04:49:34;;;;;;;9.02;3.83;;;;;;;4.52;100.00;93822.72;2124734;27;20042;-71
2022/10/27 04:50:35;;;;;;;8.43;3.42;;;;;;;4.49;100.00;93813.63;2126936;27;20392;-70
2022/10/27 04:51:36;;;;;;;9.98;3.72;;;;;;;4.44;100.00;93819.25;2126873;27;20030;-70
2022/10/27 04:52:36;;;;;;;5.95;3.67;;;;;;;4.48;100.00;93820.06;2126684;27;20125;-70
2022/10/27 04:53:37;;;;;;;12.35;3.63;;;;;;;4.49;100.00;93815.53;2126490;27;20037;-71
2022/10/27 04:54:39;;;;;;;7.85;3.45;;;;;;;4.42;100.00;93816.19;2127796;27;20747;-71
2022/10/27 04:55:40;;;;;;;7.63;3.38;;;;;;;4.46;100.00;93822.28;2128158;27;20030;-71
2022/10/27 04:56:41;;;;;;;8.30;3.50;;;;;;;4.48;100.00;93825.34;2126716;27;20039;-71
2022/10/27 04:57:42;;;;;;;5.93;3.17;;;;;;;4.36;100.00;93827.47;2126778;27;20505;-71
2022/10/27 04:58:43;;;;;;;13.93;3.80;;;;;;;4.45;100.00;93820.00;2126702;27;20468;-70